sensor_id;sensor_type;location;lat;lon;timestamp;P1;durP1;ratioP1;P2;durP2;ratioP2
31974;SDS011;18500;43.618;1.474;2022-08-21T00:01:34;388.08;;;362.95;;
31974;SDS011;18500;43.618;1.474;2022-08-21T00:04:04;307.02;;;288.70;;
31974;SDS011;18500;43.618;1.474;2022-08-21T00:06:30;270.20;;;254.10;;
31974;SDS011;18500;43.618;1.474;2022-08-21T00:08:57;282.77;;;265.25;;
31974;SDS011;18500;43.618;1.474;2022-08-21T00:11:23;275.88;;;259.10;;
31974;SDS011;18500;43.618;1.474;2022-08-21T00:13:49;288.50;;;271.45;;
31974;SDS011;18500;43.618;1.474;2022-08-21T00:16:14;318.35;;;298.58;;
31974;SDS011;18500;43.618;1.474;2022-08-21T00:18:40;476.90;;;442.95;;
31974;SDS011;18500;43.618;1.474;2022-08-21T00:21:06;387.30;;;362.88;;
31974;SDS011;18500;43.618;1.474;2022-08-21T00:23:33;370.42;;;346.60;;
31974;SDS011;18500;43.618;1.474;2022-08-21T00:26:00;395.17;;;369.40;;
31974;SDS011;18500;43.618;1.474;2022-08-21T00:28:25;310.50;;;291.25;;
31974;SDS011;18500;43.618;1.474;2022-08-21T00:30:51;292.55;;;274.63;;
31974;SDS011;18500;43.618;1.474;2022-08-21T00:33:17;373.73;;;350.40;;
31974;SDS011;18500;43.618;1.474;2022-08-21T00:35:42;308.30;;;289.67;;
31974;SDS011;18500;43.618;1.474;2022-08-21T00:38:09;307.38;;;289.00;;
31974;SDS011;18500;43.618;1.474;2022-08-21T00:40:36;291.77;;;274.45;;
31974;SDS011;18500;43.618;1.474;2022-08-21T00:43:09;496.55;;;462.10;;
31974;SDS011;18500;43.618;1.474;2022-08-21T00:45:37;337.42;;;317.05;;
31974;SDS011;18500;43.618;1.474;2022-08-21T00:48:03;388.95;;;365.52;;
31974;SDS011;18500;43.618;1.474;2022-08-21T00:50:30;464.25;;;434.50;;
31974;SDS011;18500;43.618;1.474;2022-08-21T00:52:58;601.03;;;557.85;;
31974;SDS011;18500;43.618;1.474;2022-08-21T00:55:26;376.75;;;354.33;;
31974;SDS011;18500;43.618;1.474;2022-08-21T00:57:54;504.02;;;470.17;;
31974;SDS011;18500;43.618;1.474;2022-08-21T01:00:32;267.15;;;250.23;;
31974;SDS011;18500;43.618;1.474;2022-08-21T01:03:04;315.90;;;295.95;;
31974;SDS011;18500;43.618;1.474;2022-08-21T01:05:33;368.65;;;345.40;;
31974;SDS011;18500;43.618;1.474;2022-08-21T01:07:59;315.63;;;296.20;;
31974;SDS011;18500;43.618;1.474;2022-08-21T01:10:25;430.00;;;401.05;;
31974;SDS011;18500;43.618;1.474;2022-08-21T01:12:51;494.98;;;461.00;;
31974;SDS011;18500;43.618;1.474;2022-08-21T01:15:20;385.83;;;359.98;;
31974;SDS011;18500;43.618;1.474;2022-08-21T01:17:49;421.15;;;391.60;;
31974;SDS011;18500;43.618;1.474;2022-08-21T01:20:16;362.33;;;337.50;;
31974;SDS011;18500;43.618;1.474;2022-08-21T01:22:42;298.63;;;280.08;;
31974;SDS011;18500;43.618;1.474;2022-08-21T01:25:11;261.92;;;246.35;;
31974;SDS011;18500;43.618;1.474;2022-08-21T01:27:38;279.67;;;263.30;;
31974;SDS011;18500;43.618;1.474;2022-08-21T01:30:08;413.40;;;388.15;;
31974;SDS011;18500;43.618;1.474;2022-08-21T01:32:40;443.15;;;414.63;;
31974;SDS011;18500;43.618;1.474;2022-08-21T01:35:06;660.08;;;613.28;;
31974;SDS011;18500;43.618;1.474;2022-08-21T01:37:33;880.45;;;810.17;;
31974;SDS011;18500;43.618;1.474;2022-08-21T01:39:59;691.58;;;638.30;;
31974;SDS011;18500;43.618;1.474;2022-08-21T01:42:25;976.33;;;888.92;;
31974;SDS011;18500;43.618;1.474;2022-08-21T01:44:51;769.50;;;706.38;;
31974;SDS011;18500;43.618;1.474;2022-08-21T01:47:17;796.55;;;734.75;;
31974;SDS011;18500;43.618;1.474;2022-08-21T01:49:43;661.08;;;611.85;;
31974;SDS011;18500;43.618;1.474;2022-08-21T01:52:09;717.80;;;663.42;;
31974;SDS011;18500;43.618;1.474;2022-08-21T01:54:36;206.43;;;194.40;;
31974;SDS011;18500;43.618;1.474;2022-08-21T01:57:03;272.50;;;256.95;;
31974;SDS011;18500;43.618;1.474;2022-08-21T01:59:29;463.15;;;434.17;;
31974;SDS011;18500;43.618;1.474;2022-08-21T02:01:56;402.77;;;378.98;;
31974;SDS011;18500;43.618;1.474;2022-08-21T02:04:22;340.98;;;320.90;;
31974;SDS011;18500;43.618;1.474;2022-08-21T02:06:48;328.70;;;309.48;;
31974;SDS011;18500;43.618;1.474;2022-08-21T02:09:15;259.92;;;244.50;;
31974;SDS011;18500;43.618;1.474;2022-08-21T02:11:41;230.77;;;217.63;;
31974;SDS011;18500;43.618;1.474;2022-08-21T02:14:08;268.80;;;253.77;;
31974;SDS011;18500;43.618;1.474;2022-08-21T02:16:36;258.20;;;243.80;;
31974;SDS011;18500;43.618;1.474;2022-08-21T02:19:02;202.32;;;190.60;;
31974;SDS011;18500;43.618;1.474;2022-08-21T02:21:27;190.15;;;179.45;;
31974;SDS011;18500;43.618;1.474;2022-08-21T02:23:53;205.30;;;194.13;;
31974;SDS011;18500;43.618;1.474;2022-08-21T02:26:19;234.93;;;220.85;;
31974;SDS011;18500;43.618;1.474;2022-08-21T02:28:44;241.85;;;228.13;;
31974;SDS011;18500;43.618;1.474;2022-08-21T02:31:10;260.27;;;245.90;;
31974;SDS011;18500;43.618;1.474;2022-08-21T02:33:36;338.88;;;319.42;;
31974;SDS011;18500;43.618;1.474;2022-08-21T02:36:03;358.67;;;338.00;;
31974;SDS011;18500;43.618;1.474;2022-08-21T02:38:30;288.10;;;272.20;;
31974;SDS011;18500;43.618;1.474;2022-08-21T02:40:58;265.75;;;250.57;;
31974;SDS011;18500;43.618;1.474;2022-08-21T02:43:25;267.10;;;251.98;;
31974;SDS011;18500;43.618;1.474;2022-08-21T02:45:52;244.32;;;230.90;;
31974;SDS011;18500;43.618;1.474;2022-08-21T02:48:22;199.25;;;188.25;;
31974;SDS011;18500;43.618;1.474;2022-08-21T02:50:59;217.05;;;204.70;;
31974;SDS011;18500;43.618;1.474;2022-08-21T02:53:28;527.17;;;493.83;;
31974;SDS011;18500;43.618;1.474;2022-08-21T02:55:56;421.90;;;395.48;;
31974;SDS011;18500;43.618;1.474;2022-08-21T02:58:25;279.27;;;263.25;;
31974;SDS011;18500;43.618;1.474;2022-08-21T03:00:55;332.17;;;313.93;;
31974;SDS011;18500;43.618;1.474;2022-08-21T03:03:21;424.38;;;398.88;;
31974;SDS011;18500;43.618;1.474;2022-08-21T03:05:48;355.60;;;334.85;;
31974;SDS011;18500;43.618;1.474;2022-08-21T03:08:14;337.85;;;318.50;;
31974;SDS011;18500;43.618;1.474;2022-08-21T03:10:42;235.02;;;221.45;;
31974;SDS011;18500;43.618;1.474;2022-08-21T03:13:09;281.00;;;264.67;;
31974;SDS011;18500;43.618;1.474;2022-08-21T03:15:36;350.30;;;328.33;;
31974;SDS011;18500;43.618;1.474;2022-08-21T03:18:03;353.65;;;333.55;;
31974;SDS011;18500;43.618;1.474;2022-08-21T03:20:30;275.58;;;259.65;;
31974;SDS011;18500;43.618;1.474;2022-08-21T03:22:57;573.15;;;534.80;;
31974;SDS011;18500;43.618;1.474;2022-08-21T03:25:24;283.05;;;267.27;;
31974;SDS011;18500;43.618;1.474;2022-08-21T03:27:51;292.00;;;275.58;;
31974;SDS011;18500;43.618;1.474;2022-08-21T03:30:18;389.05;;;366.63;;
31974;SDS011;18500;43.618;1.474;2022-08-21T03:32:45;377.80;;;354.10;;
31974;SDS011;18500;43.618;1.474;2022-08-21T03:35:12;538.92;;;503.98;;
31974;SDS011;18500;43.618;1.474;2022-08-21T03:37:38;538.20;;;504.08;;
31974;SDS011;18500;43.618;1.474;2022-08-21T03:40:05;589.65;;;551.03;;
31974;SDS011;18500;43.618;1.474;2022-08-21T03:42:32;585.90;;;548.25;;
31974;SDS011;18500;43.618;1.474;2022-08-21T03:44:58;580.78;;;543.30;;
31974;SDS011;18500;43.618;1.474;2022-08-21T03:47:24;480.92;;;450.33;;
31974;SDS011;18500;43.618;1.474;2022-08-21T03:49:50;520.40;;;486.92;;
31974;SDS011;18500;43.618;1.474;2022-08-21T03:52:16;461.55;;;434.15;;
31974;SDS011;18500;43.618;1.474;2022-08-21T03:54:42;485.02;;;455.95;;
31974;SDS011;18500;43.618;1.474;2022-08-21T03:57:09;411.85;;;387.88;;
31974;SDS011;18500;43.618;1.474;2022-08-21T03:59:35;486.05;;;456.10;;
31974;SDS011;18500;43.618;1.474;2022-08-21T04:02:03;411.25;;;387.35;;
31974;SDS011;18500;43.618;1.474;2022-08-21T04:04:30;433.00;;;406.98;;
31974;SDS011;18500;43.618;1.474;2022-08-21T04:06:56;452.08;;;424.80;;
31974;SDS011;18500;43.618;1.474;2022-08-21T04:09:22;475.80;;;447.08;;
31974;SDS011;18500;43.618;1.474;2022-08-21T04:11:49;409.25;;;384.88;;
31974;SDS011;18500;43.618;1.474;2022-08-21T04:14:15;439.58;;;412.85;;
31974;SDS011;18500;43.618;1.474;2022-08-21T04:16:42;416.25;;;392.77;;
31974;SDS011;18500;43.618;1.474;2022-08-21T04:19:08;525.35;;;493.23;;
31974;SDS011;18500;43.618;1.474;2022-08-21T04:21:37;489.27;;;460.15;;
31974;SDS011;18500;43.618;1.474;2022-08-21T04:24:03;463.33;;;435.40;;
31974;SDS011;18500;43.618;1.474;2022-08-21T04:26:30;656.70;;;608.83;;
31974;SDS011;18500;43.618;1.474;2022-08-21T04:28:56;463.77;;;435.08;;
31974;SDS011;18500;43.618;1.474;2022-08-21T04:31:22;422.63;;;397.42;;
31974;SDS011;18500;43.618;1.474;2022-08-21T04:33:49;468.45;;;439.27;;
31974;SDS011;18500;43.618;1.474;2022-08-21T04:36:15;354.92;;;333.90;;
31974;SDS011;18500;43.618;1.474;2022-08-21T04:38:41;424.55;;;398.25;;
31974;SDS011;18500;43.618;1.474;2022-08-21T04:41:07;510.83;;;478.23;;
31974;SDS011;18500;43.618;1.474;2022-08-21T04:43:33;361.55;;;340.75;;
31974;SDS011;18500;43.618;1.474;2022-08-21T04:45:59;436.80;;;410.95;;
31974;SDS011;18500;43.618;1.474;2022-08-21T04:48:25;418.75;;;394.02;;
31974;SDS011;18500;43.618;1.474;2022-08-21T04:53:29;489.73;;;459.20;;
31974;SDS011;18500;43.618;1.474;2022-08-21T04:56:02;487.30;;;457.08;;
31974;SDS011;18500;43.618;1.474;2022-08-21T04:58:32;403.90;;;379.37;;
31974;SDS011;18500;43.618;1.474;2022-08-21T05:01:00;443.92;;;416.45;;
31974;SDS011;18500;43.618;1.474;2022-08-21T05:03:27;486.70;;;456.77;;
31974;SDS011;18500;43.618;1.474;2022-08-21T05:05:54;469.67;;;441.60;;
31974;SDS011;18500;43.618;1.474;2022-08-21T05:08:21;434.67;;;408.35;;
31974;SDS011;18500;43.618;1.474;2022-08-21T05:10:50;484.15;;;455.55;;
31974;SDS011;18500;43.618;1.474;2022-08-21T05:13:16;400.60;;;377.13;;
31974;SDS011;18500;43.618;1.474;2022-08-21T05:15:43;454.83;;;426.67;;
31974;SDS011;18500;43.618;1.474;2022-08-21T05:18:08;426.92;;;402.40;;
31974;SDS011;18500;43.618;1.474;2022-08-21T05:20:34;506.23;;;473.35;;
31974;SDS011;18500;43.618;1.474;2022-08-21T05:23:00;423.80;;;398.02;;
31974;SDS011;18500;43.618;1.474;2022-08-21T05:25:32;415.40;;;389.13;;
31974;SDS011;18500;43.618;1.474;2022-08-21T05:27:58;397.15;;;370.90;;
31974;SDS011;18500;43.618;1.474;2022-08-21T05:30:23;377.30;;;353.33;;
31974;SDS011;18500;43.618;1.474;2022-08-21T05:32:49;480.55;;;449.38;;
31974;SDS011;18500;43.618;1.474;2022-08-21T05:37:46;438.00;;;407.92;;
31974;SDS011;18500;43.618;1.474;2022-08-21T05:40:12;484.98;;;453.30;;
31974;SDS011;18500;43.618;1.474;2022-08-21T05:42:39;466.10;;;438.77;;
31974;SDS011;18500;43.618;1.474;2022-08-21T05:45:04;557.20;;;521.38;;
31974;SDS011;18500;43.618;1.474;2022-08-21T05:47:30;424.05;;;398.10;;
31974;SDS011;18500;43.618;1.474;2022-08-21T05:49:56;381.17;;;357.98;;
31974;SDS011;18500;43.618;1.474;2022-08-21T05:52:22;402.33;;;376.88;;
31974;SDS011;18500;43.618;1.474;2022-08-21T05:54:48;413.40;;;386.88;;
31974;SDS011;18500;43.618;1.474;2022-08-21T05:57:14;415.73;;;388.75;;
31974;SDS011;18500;43.618;1.474;2022-08-21T05:59:39;422.95;;;396.05;;
31974;SDS011;18500;43.618;1.474;2022-08-21T06:02:05;370.08;;;347.08;;
31974;SDS011;18500;43.618;1.474;2022-08-21T06:04:36;300.55;;;283.58;;
31974;SDS011;18500;43.618;1.474;2022-08-21T06:07:03;305.25;;;287.98;;
31974;SDS011;18500;43.618;1.474;2022-08-21T06:09:29;301.35;;;284.02;;
31974;SDS011;18500;43.618;1.474;2022-08-21T06:11:55;257.20;;;242.48;;
31974;SDS011;18500;43.618;1.474;2022-08-21T06:14:21;262.13;;;247.63;;
31974;SDS011;18500;43.618;1.474;2022-08-21T06:16:46;253.48;;;239.15;;
31974;SDS011;18500;43.618;1.474;2022-08-21T06:19:12;273.83;;;258.35;;
31974;SDS011;18500;43.618;1.474;2022-08-21T06:21:38;277.10;;;261.88;;
31974;SDS011;18500;43.618;1.474;2022-08-21T06:24:04;300.88;;;284.38;;
31974;SDS011;18500;43.618;1.474;2022-08-21T06:26:31;326.58;;;308.77;;
31974;SDS011;18500;43.618;1.474;2022-08-21T06:28:56;337.92;;;319.42;;
31974;SDS011;18500;43.618;1.474;2022-08-21T06:31:23;332.55;;;314.48;;
31974;SDS011;18500;43.618;1.474;2022-08-21T06:33:50;355.90;;;335.90;;
31974;SDS011;18500;43.618;1.474;2022-08-21T06:36:16;331.38;;;313.02;;
31974;SDS011;18500;43.618;1.474;2022-08-21T06:38:42;352.33;;;332.83;;
31974;SDS011;18500;43.618;1.474;2022-08-21T06:41:08;335.33;;;317.15;;
31974;SDS011;18500;43.618;1.474;2022-08-21T06:43:33;301.88;;;285.52;;
31974;SDS011;18500;43.618;1.474;2022-08-21T06:45:59;312.45;;;295.42;;
31974;SDS011;18500;43.618;1.474;2022-08-21T06:48:25;224.82;;;212.75;;
31974;SDS011;18500;43.618;1.474;2022-08-21T06:50:51;589.30;;;546.58;;
31974;SDS011;18500;43.618;1.474;2022-08-21T06:53:18;330.10;;;311.10;;
31974;SDS011;18500;43.618;1.474;2022-08-21T06:55:45;381.70;;;358.30;;
31974;SDS011;18500;43.618;1.474;2022-08-21T06:58:12;434.73;;;404.42;;
31974;SDS011;18500;43.618;1.474;2022-08-21T07:00:39;270.98;;;256.10;;
31974;SDS011;18500;43.618;1.474;2022-08-21T07:03:18;252.18;;;238.52;;
31974;SDS011;18500;43.618;1.474;2022-08-21T07:05:54;270.98;;;254.90;;
31974;SDS011;18500;43.618;1.474;2022-08-21T07:08:23;226.93;;;214.25;;
31974;SDS011;18500;43.618;1.474;2022-08-21T07:10:49;234.88;;;222.02;;
31974;SDS011;18500;43.618;1.474;2022-08-21T07:13:16;229.13;;;216.32;;
31974;SDS011;18500;43.618;1.474;2022-08-21T07:15:42;239.55;;;226.15;;
31974;SDS011;18500;43.618;1.474;2022-08-21T07:18:07;233.18;;;220.52;;
31974;SDS011;18500;43.618;1.474;2022-08-21T07:20:33;238.77;;;225.65;;
31974;SDS011;18500;43.618;1.474;2022-08-21T07:23:00;222.57;;;209.80;;
31974;SDS011;18500;43.618;1.474;2022-08-21T07:25:28;228.73;;;214.65;;
31974;SDS011;18500;43.618;1.474;2022-08-21T07:27:54;217.35;;;204.25;;
31974;SDS011;18500;43.618;1.474;2022-08-21T07:30:20;243.77;;;228.68;;
31974;SDS011;18500;43.618;1.474;2022-08-21T07:32:46;235.60;;;221.05;;
31974;SDS011;18500;43.618;1.474;2022-08-21T07:35:14;274.85;;;257.58;;
31974;SDS011;18500;43.618;1.474;2022-08-21T07:37:40;315.85;;;295.40;;
31974;SDS011;18500;43.618;1.474;2022-08-21T07:40:06;467.95;;;429.55;;
31974;SDS011;18500;43.618;1.474;2022-08-21T07:42:32;309.73;;;290.63;;
31974;SDS011;18500;43.618;1.474;2022-08-21T07:44:58;282.00;;;265.08;;
31974;SDS011;18500;43.618;1.474;2022-08-21T07:47:24;313.02;;;294.05;;
31974;SDS011;18500;43.618;1.474;2022-08-21T07:49:49;290.35;;;272.55;;
31974;SDS011;18500;43.618;1.474;2022-08-21T07:52:15;411.35;;;383.33;;
31974;SDS011;18500;43.618;1.474;2022-08-21T07:54:41;358.90;;;336.48;;
31974;SDS011;18500;43.618;1.474;2022-08-21T07:57:06;396.25;;;372.10;;
31974;SDS011;18500;43.618;1.474;2022-08-21T07:59:32;385.70;;;361.17;;
31974;SDS011;18500;43.618;1.474;2022-08-21T08:01:58;382.05;;;357.77;;
31974;SDS011;18500;43.618;1.474;2022-08-21T08:04:24;442.15;;;412.70;;
31974;SDS011;18500;43.618;1.474;2022-08-21T08:06:49;426.33;;;399.02;;
31974;SDS011;18500;43.618;1.474;2022-08-21T08:09:15;443.85;;;413.77;;
31974;SDS011;18500;43.618;1.474;2022-08-21T08:11:41;416.25;;;388.55;;
31974;SDS011;18500;43.618;1.474;2022-08-21T08:14:10;454.63;;;422.85;;
31974;SDS011;18500;43.618;1.474;2022-08-21T08:16:35;441.38;;;410.75;;
31974;SDS011;18500;43.618;1.474;2022-08-21T08:19:02;609.90;;;563.63;;
31974;SDS011;18500;43.618;1.474;2022-08-21T08:21:28;396.85;;;370.55;;
31974;SDS011;18500;43.618;1.474;2022-08-21T08:23:54;448.77;;;419.00;;
31974;SDS011;18500;43.618;1.474;2022-08-21T08:26:19;361.98;;;338.85;;
31974;SDS011;18500;43.618;1.474;2022-08-21T08:28:45;346.35;;;324.50;;
31974;SDS011;18500;43.618;1.474;2022-08-21T08:31:11;593.47;;;552.15;;
31974;SDS011;18500;43.618;1.474;2022-08-21T08:33:37;447.33;;;418.92;;
31974;SDS011;18500;43.618;1.474;2022-08-21T08:36:03;573.83;;;533.58;;
31974;SDS011;18500;43.618;1.474;2022-08-21T08:38:29;494.17;;;460.48;;
31974;SDS011;18500;43.618;1.474;2022-08-21T08:40:58;907.90;;;826.70;;
31974;SDS011;18500;43.618;1.474;2022-08-21T08:43:37;479.27;;;447.52;;
31974;SDS011;18500;43.618;1.474;2022-08-21T08:46:04;537.13;;;501.05;;
31974;SDS011;18500;43.618;1.474;2022-08-21T08:48:41;682.95;;;631.03;;
31974;SDS011;18500;43.618;1.474;2022-08-21T08:51:39;852.17;;;780.92;;
31974;SDS011;18500;43.618;1.474;2022-08-21T08:54:55;852.97;;;781.92;;
31974;SDS011;18500;43.618;1.474;2022-08-21T08:57:18;645.65;;;598.08;;
31974;SDS011;18500;43.618;1.474;2022-08-21T08:59:48;945.33;;;863.55;;
31974;SDS011;18500;43.618;1.474;2022-08-21T09:02:17;945.65;;;859.67;;
31974;SDS011;18500;43.618;1.474;2022-08-21T09:04:44;975.88;;;886.45;;
31974;SDS011;18500;43.618;1.474;2022-08-21T09:07:16;1015.25;;;922.10;;
31974;SDS011;18500;43.618;1.474;2022-08-21T09:09:51;638.47;;;590.05;;
31974;SDS011;18500;43.618;1.474;2022-08-21T09:12:33;770.97;;;711.58;;
31974;SDS011;18500;43.618;1.474;2022-08-21T09:17:56;650.50;;;603.83;;
31974;SDS011;18500;43.618;1.474;2022-08-21T09:20:45;691.10;;;638.42;;
31974;SDS011;18500;43.618;1.474;2022-08-21T09:29:35;872.22;;;796.10;;
31974;SDS011;18500;43.618;1.474;2022-08-21T09:32:06;761.58;;;707.45;;
31974;SDS011;18500;43.618;1.474;2022-08-21T09:34:43;798.45;;;741.08;;
31974;SDS011;18500;43.618;1.474;2022-08-21T09:42:59;645.70;;;599.97;;
31974;SDS011;18500;43.618;1.474;2022-08-21T09:45:34;643.78;;;597.28;;
31974;SDS011;18500;43.618;1.474;2022-08-21T09:48:14;770.13;;;713.75;;
31974;SDS011;18500;43.618;1.474;2022-08-21T09:50:43;741.35;;;686.05;;
31974;SDS011;18500;43.618;1.474;2022-08-21T09:55:53;727.95;;;672.50;;
31974;SDS011;18500;43.618;1.474;2022-08-21T09:58:38;767.67;;;706.33;;
31974;SDS011;18500;43.618;1.474;2022-08-21T10:01:06;651.35;;;605.38;;
31974;SDS011;18500;43.618;1.474;2022-08-21T10:03:38;451.20;;;422.75;;
31974;SDS011;18500;43.618;1.474;2022-08-21T10:06:05;583.33;;;543.15;;
31974;SDS011;18500;43.618;1.474;2022-08-21T10:08:34;628.90;;;584.90;;
31974;SDS011;18500;43.618;1.474;2022-08-21T10:11:05;854.58;;;785.78;;
31974;SDS011;18500;43.618;1.474;2022-08-21T10:25:02;813.13;;;751.45;;
31974;SDS011;18500;43.618;1.474;2022-08-21T10:30:36;797.17;;;737.03;;
31974;SDS011;18500;43.618;1.474;2022-08-21T10:36:02;870.67;;;799.17;;
31974;SDS011;18500;43.618;1.474;2022-08-21T10:38:46;762.60;;;707.55;;
31974;SDS011;18500;43.618;1.474;2022-08-21T10:41:27;873.92;;;807.78;;
31974;SDS011;18500;43.618;1.474;2022-08-21T10:44:07;756.00;;;703.10;;
31974;SDS011;18500;43.618;1.474;2022-08-21T10:52:41;840.50;;;778.15;;
31974;SDS011;18500;43.618;1.474;2022-08-21T11:00:16;831.40;;;771.33;;
31974;SDS011;18500;43.618;1.474;2022-08-21T11:05:51;833.55;;;772.85;;
31974;SDS011;18500;43.618;1.474;2022-08-21T11:08:39;831.92;;;771.03;;
31974;SDS011;18500;43.618;1.474;2022-08-21T11:13:59;794.25;;;736.65;;
31974;SDS011;18500;43.618;1.474;2022-08-21T11:16:42;714.67;;;664.05;;
31974;SDS011;18500;43.618;1.474;2022-08-21T11:22:00;746.50;;;695.47;;
31974;SDS011;18500;43.618;1.474;2022-08-21T11:24:50;754.70;;;702.55;;
31974;SDS011;18500;43.618;1.474;2022-08-21T11:29:57;742.10;;;690.70;;
31974;SDS011;18500;43.618;1.474;2022-08-21T11:40:41;745.58;;;693.03;;
31974;SDS011;18500;43.618;1.474;2022-08-21T11:43:11;788.28;;;733.15;;
31974;SDS011;18500;43.618;1.474;2022-08-21T11:45:47;747.10;;;695.95;;
31974;SDS011;18500;43.618;1.474;2022-08-21T11:51:13;885.92;;;811.50;;
31974;SDS011;18500;43.618;1.474;2022-08-21T11:56:21;756.00;;;704.00;;
31974;SDS011;18500;43.618;1.474;2022-08-21T11:58:56;717.67;;;668.95;;
31974;SDS011;18500;43.618;1.474;2022-08-21T12:01:37;795.30;;;734.95;;
31974;SDS011;18500;43.618;1.474;2022-08-21T12:04:07;761.55;;;706.25;;
31974;SDS011;18500;43.618;1.474;2022-08-21T12:06:47;734.53;;;683.47;;
31974;SDS011;18500;43.618;1.474;2022-08-21T12:12:11;759.45;;;704.22;;
31974;SDS011;18500;43.618;1.474;2022-08-21T12:14:47;978.38;;;890.65;;
31974;SDS011;18500;43.618;1.474;2022-08-21T12:17:26;910.53;;;835.63;;
31974;SDS011;18500;43.618;1.474;2022-08-21T12:20:14;771.58;;;717.80;;
31974;SDS011;18500;43.618;1.474;2022-08-21T12:28:36;815.17;;;756.30;;
31974;SDS011;18500;43.618;1.474;2022-08-21T12:31:03;862.58;;;796.80;;
31974;SDS011;18500;43.618;1.474;2022-08-21T12:33:34;815.85;;;757.25;;
31974;SDS011;18500;43.618;1.474;2022-08-21T12:38:43;804.35;;;746.97;;
31974;SDS011;18500;43.618;1.474;2022-08-21T12:41:18;775.42;;;721.33;;
31974;SDS011;18500;43.618;1.474;2022-08-21T12:43:51;796.05;;;739.85;;
31974;SDS011;18500;43.618;1.474;2022-08-21T12:46:25;832.75;;;771.05;;
31974;SDS011;18500;43.618;1.474;2022-08-21T12:49:14;816.92;;;757.33;;
31974;SDS011;18500;43.618;1.474;2022-08-21T12:51:54;807.38;;;749.40;;
31974;SDS011;18500;43.618;1.474;2022-08-21T12:54:28;773.28;;;718.85;;
31974;SDS011;18500;43.618;1.474;2022-08-21T12:56:57;789.80;;;733.83;;
31974;SDS011;18500;43.618;1.474;2022-08-21T12:59:25;808.83;;;750.38;;
31974;SDS011;18500;43.618;1.474;2022-08-21T13:01:51;801.72;;;744.55;;
31974;SDS011;18500;43.618;1.474;2022-08-21T13:04:21;908.30;;;835.17;;
31974;SDS011;18500;43.618;1.474;2022-08-21T13:06:53;812.75;;;754.00;;
31974;SDS011;18500;43.618;1.474;2022-08-21T13:09:26;804.40;;;746.33;;
31974;SDS011;18500;43.618;1.474;2022-08-21T13:11:54;820.88;;;761.13;;
31974;SDS011;18500;43.618;1.474;2022-08-21T13:16:55;798.08;;;741.38;;
31974;SDS011;18500;43.618;1.474;2022-08-21T13:19:22;881.13;;;812.67;;
31974;SDS011;18500;43.618;1.474;2022-08-21T13:21:50;1019.63;;;925.78;;
31974;SDS011;18500;43.618;1.474;2022-08-21T13:24:24;943.20;;;864.63;;
31974;SDS011;18500;43.618;1.474;2022-08-21T13:26:54;890.83;;;820.17;;
31974;SDS011;18500;43.618;1.474;2022-08-21T13:29:23;915.17;;;843.22;;
31974;SDS011;18500;43.618;1.474;2022-08-21T13:31:55;993.92;;;906.05;;
31974;SDS011;18500;43.618;1.474;2022-08-21T13:34:29;849.75;;;787.65;;
31974;SDS011;18500;43.618;1.474;2022-08-21T13:36:59;910.63;;;839.55;;
31974;SDS011;18500;43.618;1.474;2022-08-21T13:39:32;860.50;;;796.55;;
31974;SDS011;18500;43.618;1.474;2022-08-21T13:41:59;932.78;;;857.60;;
31974;SDS011;18500;43.618;1.474;2022-08-21T13:44:35;946.17;;;869.55;;
31974;SDS011;18500;43.618;1.474;2022-08-21T13:47:06;856.05;;;793.15;;
31974;SDS011;18500;43.618;1.474;2022-08-21T13:49:36;866.15;;;801.35;;
31974;SDS011;18500;43.618;1.474;2022-08-21T13:52:04;836.38;;;775.72;;
31974;SDS011;18500;43.618;1.474;2022-08-21T13:54:39;801.55;;;744.25;;
31974;SDS011;18500;43.618;1.474;2022-08-21T13:57:20;814.42;;;755.50;;
31974;SDS011;18500;43.618;1.474;2022-08-21T14:00:09;909.83;;;833.15;;
31974;SDS011;18500;43.618;1.474;2022-08-21T14:02:40;824.00;;;764.05;;
31974;SDS011;18500;43.618;1.474;2022-08-21T14:07:40;785.33;;;729.95;;
31974;SDS011;18500;43.618;1.474;2022-08-21T14:10:13;823.28;;;764.03;;
31974;SDS011;18500;43.618;1.474;2022-08-21T14:12:55;864.83;;;801.28;;
31974;SDS011;18500;43.618;1.474;2022-08-21T14:15:29;972.88;;;888.55;;
31974;SDS011;18500;43.618;1.474;2022-08-21T14:18:15;983.42;;;897.83;;
31974;SDS011;18500;43.618;1.474;2022-08-21T14:20:43;880.67;;;809.63;;
31974;SDS011;18500;43.618;1.474;2022-08-21T14:23:09;868.08;;;802.63;;
31974;SDS011;18500;43.618;1.474;2022-08-21T14:25:38;841.65;;;777.85;;
31974;SDS011;18500;43.618;1.474;2022-08-21T14:30:46;906.60;;;834.92;;
31974;SDS011;18500;43.618;1.474;2022-08-21T14:33:13;835.58;;;774.42;;
31974;SDS011;18500;43.618;1.474;2022-08-21T14:35:48;863.10;;;796.85;;
31974;SDS011;18500;43.618;1.474;2022-08-21T14:38:15;948.53;;;869.90;;
31974;SDS011;18500;43.618;1.474;2022-08-21T14:40:43;889.33;;;821.60;;
31974;SDS011;18500;43.618;1.474;2022-08-21T14:43:25;989.00;;;896.33;;
31974;SDS011;18500;43.618;1.474;2022-08-21T14:45:53;824.20;;;764.40;;
31974;SDS011;18500;43.618;1.474;2022-08-21T14:48:19;861.03;;;797.00;;
31974;SDS011;18500;43.618;1.474;2022-08-21T14:50:44;823.33;;;762.40;;
31974;SDS011;18500;43.618;1.474;2022-08-21T14:53:11;842.45;;;779.15;;
31974;SDS011;18500;43.618;1.474;2022-08-21T14:55:37;856.97;;;791.97;;
31974;SDS011;18500;43.618;1.474;2022-08-21T14:58:23;916.40;;;843.30;;
31974;SDS011;18500;43.618;1.474;2022-08-21T15:00:50;796.38;;;738.63;;
31974;SDS011;18500;43.618;1.474;2022-08-21T15:03:17;834.17;;;772.92;;
31974;SDS011;18500;43.618;1.474;2022-08-21T15:05:43;805.92;;;747.90;;
31974;SDS011;18500;43.618;1.474;2022-08-21T15:08:09;826.38;;;766.05;;
31974;SDS011;18500;43.618;1.474;2022-08-21T15:10:35;868.72;;;801.70;;
31974;SDS011;18500;43.618;1.474;2022-08-21T15:13:01;867.25;;;799.58;;
31974;SDS011;18500;43.618;1.474;2022-08-21T15:15:28;843.90;;;780.72;;
31974;SDS011;18500;43.618;1.474;2022-08-21T15:17:57;858.60;;;794.50;;
31974;SDS011;18500;43.618;1.474;2022-08-21T15:20:23;882.55;;;811.42;;
31974;SDS011;18500;43.618;1.474;2022-08-21T15:22:48;875.45;;;805.97;;
31974;SDS011;18500;43.618;1.474;2022-08-21T15:25:14;839.95;;;777.20;;
31974;SDS011;18500;43.618;1.474;2022-08-21T15:27:40;838.45;;;776.00;;
31974;SDS011;18500;43.618;1.474;2022-08-21T15:30:06;851.03;;;786.85;;
31974;SDS011;18500;43.618;1.474;2022-08-21T15:32:32;864.00;;;798.35;;
31974;SDS011;18500;43.618;1.474;2022-08-21T15:34:57;853.22;;;789.28;;
31974;SDS011;18500;43.618;1.474;2022-08-21T15:37:23;856.08;;;791.50;;
31974;SDS011;18500;43.618;1.474;2022-08-21T15:39:50;862.10;;;797.00;;
31974;SDS011;18500;43.618;1.474;2022-08-21T15:42:17;852.05;;;788.40;;